sensor_id;sensor_type;location;lat;lon;timestamp;temperature;humidity
18733;DHT22;9495;51.210;2.934;2022-11-20T00:01:28;5.70;99.90
18733;DHT22;9495;51.210;2.934;2022-11-20T00:03:58;5.70;99.90
18733;DHT22;9495;51.210;2.934;2022-11-20T00:06:28;5.60;99.90
18733;DHT22;9495;51.210;2.934;2022-11-20T00:08:58;5.60;99.90
18733;DHT22;9495;51.210;2.934;2022-11-20T00:11:29;5.70;99.90
18733;DHT22;9495;51.210;2.934;2022-11-20T00:13:59;5.80;99.90
18733;DHT22;9495;51.210;2.934;2022-11-20T00:16:30;5.80;99.90
18733;DHT22;9495;51.210;2.934;2022-11-20T00:19:00;5.90;99.90
18733;DHT22;9495;51.210;2.934;2022-11-20T00:21:29;5.80;99.90
18733;DHT22;9495;51.210;2.934;2022-11-20T00:23:58;5.80;99.90
18733;DHT22;9495;51.210;2.934;2022-11-20T00:26:27;5.80;99.90
18733;DHT22;9495;51.210;2.934;2022-11-20T00:28:57;5.80;99.90
18733;DHT22;9495;51.210;2.934;2022-11-20T00:31:25;5.80;99.90
18733;DHT22;9495;51.210;2.934;2022-11-20T00:33:54;5.90;99.90
18733;DHT22;9495;51.210;2.934;2022-11-20T00:36:26;5.90;99.90
18733;DHT22;9495;51.210;2.934;2022-11-20T00:38:56;5.90;99.90
18733;DHT22;9495;51.210;2.934;2022-11-20T00:41:25;5.80;99.90
18733;DHT22;9495;51.210;2.934;2022-11-20T00:43:54;5.80;99.90
18733;DHT22;9495;51.210;2.934;2022-11-20T00:46:24;5.80;99.90
18733;DHT22;9495;51.210;2.934;2022-11-20T00:48:52;5.80;99.90
18733;DHT22;9495;51.210;2.934;2022-11-20T00:51:22;5.80;99.90
18733;DHT22;9495;51.210;2.934;2022-11-20T00:53:52;5.80;99.90
18733;DHT22;9495;51.210;2.934;2022-11-20T00:56:22;5.80;99.90
18733;DHT22;9495;51.210;2.934;2022-11-20T00:58:51;5.80;99.90
18733;DHT22;9495;51.210;2.934;2022-11-20T01:01:20;5.80;99.90
18733;DHT22;9495;51.210;2.934;2022-11-20T01:03:52;5.80;99.90
18733;DHT22;9495;51.210;2.934;2022-11-20T01:06:22;5.80;99.90
18733;DHT22;9495;51.210;2.934;2022-11-20T01:08:53;5.90;99.90
18733;DHT22;9495;51.210;2.934;2022-11-20T01:11:23;5.90;99.90
18733;DHT22;9495;51.210;2.934;2022-11-20T01:13:53;5.90;99.90
18733;DHT22;9495;51.210;2.934;2022-11-20T01:16:23;5.80;99.90
18733;DHT22;9495;51.210;2.934;2022-11-20T01:18:52;5.90;99.90
18733;DHT22;9495;51.210;2.934;2022-11-20T01:21:22;5.90;99.90
18733;DHT22;9495;51.210;2.934;2022-11-20T01:23:53;5.90;99.90
18733;DHT22;9495;51.210;2.934;2022-11-20T01:26:23;5.90;99.90
18733;DHT22;9495;51.210;2.934;2022-11-20T01:28:52;5.90;99.90
18733;DHT22;9495;51.210;2.934;2022-11-20T01:31:22;5.90;99.90
18733;DHT22;9495;51.210;2.934;2022-11-20T01:33:52;5.90;99.90
18733;DHT22;9495;51.210;2.934;2022-11-20T01:36:23;5.90;99.90
18733;DHT22;9495;51.210;2.934;2022-11-20T01:38:53;5.90;99.90
18733;DHT22;9495;51.210;2.934;2022-11-20T01:41:23;6.00;99.90
18733;DHT22;9495;51.210;2.934;2022-11-20T01:44:05;6.00;99.90
18733;DHT22;9495;51.210;2.934;2022-11-20T01:46:35;5.90;99.90
18733;DHT22;9495;51.210;2.934;2022-11-20T01:49:10;5.90;99.90
18733;DHT22;9495;51.210;2.934;2022-11-20T01:51:42;6.00;99.90
18733;DHT22;9495;51.210;2.934;2022-11-20T01:54:15;6.00;99.90
18733;DHT22;9495;51.210;2.934;2022-11-20T01:56:45;6.00;99.90
18733;DHT22;9495;51.210;2.934;2022-11-20T01:59:15;6.00;99.90
18733;DHT22;9495;51.210;2.934;2022-11-20T02:01:45;6.00;99.90
18733;DHT22;9495;51.210;2.934;2022-11-20T02:04:15;6.00;99.90
18733;DHT22;9495;51.210;2.934;2022-11-20T02:06:47;6.00;99.90
18733;DHT22;9495;51.210;2.934;2022-11-20T02:09:18;5.90;99.90
18733;DHT22;9495;51.210;2.934;2022-11-20T02:11:47;6.00;99.90
18733;DHT22;9495;51.210;2.934;2022-11-20T02:14:15;5.90;99.90
18733;DHT22;9495;51.210;2.934;2022-11-20T02:16:45;5.90;99.90
18733;DHT22;9495;51.210;2.934;2022-11-20T02:19:20;5.90;99.90
18733;DHT22;9495;51.210;2.934;2022-11-20T02:21:57;6.00;99.90
18733;DHT22;9495;51.210;2.934;2022-11-20T02:24:28;6.00;99.90
18733;DHT22;9495;51.210;2.934;2022-11-20T02:26:59;6.00;99.90
18733;DHT22;9495;51.210;2.934;2022-11-20T02:29:33;6.00;99.90
18733;DHT22;9495;51.210;2.934;2022-11-20T02:32:03;6.00;99.90
18733;DHT22;9495;51.210;2.934;2022-11-20T02:34:32;6.00;99.90
18733;DHT22;9495;51.210;2.934;2022-11-20T02:37:00;6.00;99.90
18733;DHT22;9495;51.210;2.934;2022-11-20T02:39:30;6.00;99.90
18733;DHT22;9495;51.210;2.934;2022-11-20T02:42:01;6.00;99.90
18733;DHT22;9495;51.210;2.934;2022-11-20T02:44:30;6.00;99.90
18733;DHT22;9495;51.210;2.934;2022-11-20T02:46:58;6.00;99.90
18733;DHT22;9495;51.210;2.934;2022-11-20T02:49:27;6.00;99.90
18733;DHT22;9495;51.210;2.934;2022-11-20T02:51:55;6.00;99.90
18733;DHT22;9495;51.210;2.934;2022-11-20T02:54:24;6.10;99.90
18733;DHT22;9495;51.210;2.934;2022-11-20T02:56:54;6.00;99.90
18733;DHT22;9495;51.210;2.934;2022-11-20T02:59:22;6.00;99.90
18733;DHT22;9495;51.210;2.934;2022-11-20T03:01:51;6.10;99.90
18733;DHT22;9495;51.210;2.934;2022-11-20T03:04:19;6.10;99.90
18733;DHT22;9495;51.210;2.934;2022-11-20T03:06:48;6.00;99.90
18733;DHT22;9495;51.210;2.934;2022-11-20T03:09:16;6.00;99.90
18733;DHT22;9495;51.210;2.934;2022-11-20T03:11:45;6.00;99.90
18733;DHT22;9495;51.210;2.934;2022-11-20T03:14:14;6.00;99.90
18733;DHT22;9495;51.210;2.934;2022-11-20T03:16:42;6.00;99.90
18733;DHT22;9495;51.210;2.934;2022-11-20T03:19:12;6.00;99.90
18733;DHT22;9495;51.210;2.934;2022-11-20T03:21:40;6.10;99.90
18733;DHT22;9495;51.210;2.934;2022-11-20T03:24:10;6.20;99.90
18733;DHT22;9495;51.210;2.934;2022-11-20T03:26:39;6.20;99.90
18733;DHT22;9495;51.210;2.934;2022-11-20T03:29:07;6.20;99.90
18733;DHT22;9495;51.210;2.934;2022-11-20T03:31:38;6.10;99.90
18733;DHT22;9495;51.210;2.934;2022-11-20T03:34:08;6.10;99.90
18733;DHT22;9495;51.210;2.934;2022-11-20T03:36:38;6.10;99.90
18733;DHT22;9495;51.210;2.934;2022-11-20T03:39:06;6.00;99.90
18733;DHT22;9495;51.210;2.934;2022-11-20T03:41:36;6.00;99.90
18733;DHT22;9495;51.210;2.934;2022-11-20T03:44:07;6.00;99.90
18733;DHT22;9495;51.210;2.934;2022-11-20T03:46:37;6.00;99.90
18733;DHT22;9495;51.210;2.934;2022-11-20T03:49:06;6.00;99.90
18733;DHT22;9495;51.210;2.934;2022-11-20T03:51:35;6.00;99.90
18733;DHT22;9495;51.210;2.934;2022-11-20T03:54:05;6.00;99.90
18733;DHT22;9495;51.210;2.934;2022-11-20T03:56:35;6.00;99.90
18733;DHT22;9495;51.210;2.934;2022-11-20T03:59:04;6.00;99.90
18733;DHT22;9495;51.210;2.934;2022-11-20T04:01:34;5.90;99.90
18733;DHT22;9495;51.210;2.934;2022-11-20T04:04:05;6.00;99.90
18733;DHT22;9495;51.210;2.934;2022-11-20T04:06:35;5.90;99.90
18733;DHT22;9495;51.210;2.934;2022-11-20T04:09:04;6.00;99.90
18733;DHT22;9495;51.210;2.934;2022-11-20T04:11:34;5.90;99.90
18733;DHT22;9495;51.210;2.934;2022-11-20T04:14:04;5.90;99.90
18733;DHT22;9495;51.210;2.934;2022-11-20T04:16:34;5.90;99.90
18733;DHT22;9495;51.210;2.934;2022-11-20T04:19:05;5.90;99.90
18733;DHT22;9495;51.210;2.934;2022-11-20T04:21:34;5.90;99.90
18733;DHT22;9495;51.210;2.934;2022-11-20T04:24:03;5.90;99.90
18733;DHT22;9495;51.210;2.934;2022-11-20T04:26:32;5.80;99.90
18733;DHT22;9495;51.210;2.934;2022-11-20T04:29:00;5.80;99.90
18733;DHT22;9495;51.210;2.934;2022-11-20T04:31:30;5.90;99.90
18733;DHT22;9495;51.210;2.934;2022-11-20T04:34:00;5.90;99.90
18733;DHT22;9495;51.210;2.934;2022-11-20T04:36:30;5.90;99.90
18733;DHT22;9495;51.210;2.934;2022-11-20T04:38:59;5.90;99.90
18733;DHT22;9495;51.210;2.934;2022-11-20T04:41:29;5.90;99.90
18733;DHT22;9495;51.210;2.934;2022-11-20T04:44:00;6.10;99.90
18733;DHT22;9495;51.210;2.934;2022-11-20T04:46:31;6.30;99.90
18733;DHT22;9495;51.210;2.934;2022-11-20T04:49:00;6.20;99.90
18733;DHT22;9495;51.210;2.934;2022-11-20T04:51:29;6.30;99.90
18733;DHT22;9495;51.210;2.934;2022-11-20T04:53:58;6.30;99.90
18733;DHT22;9495;51.210;2.934;2022-11-20T04:56:26;6.50;99.90
18733;DHT22;9495;51.210;2.934;2022-11-20T04:58:55;6.40;99.90
18733;DHT22;9495;51.210;2.934;2022-11-20T05:01:24;6.50;99.90
18733;DHT22;9495;51.210;2.934;2022-11-20T05:03:53;6.70;99.90
18733;DHT22;9495;51.210;2.934;2022-11-20T05:06:21;6.50;99.90
18733;DHT22;9495;51.210;2.934;2022-11-20T05:08:51;6.50;99.90
18733;DHT22;9495;51.210;2.934;2022-11-20T05:11:21;6.60;99.90
18733;DHT22;9495;51.210;2.934;2022-11-20T05:13:50;6.50;99.90
18733;DHT22;9495;51.210;2.934;2022-11-20T05:16:20;6.40;99.90
18733;DHT22;9495;51.210;2.934;2022-11-20T05:18:49;6.50;99.90
18733;DHT22;9495;51.210;2.934;2022-11-20T05:21:18;6.50;99.90
18733;DHT22;9495;51.210;2.934;2022-11-20T05:23:46;6.60;99.90
18733;DHT22;9495;51.210;2.934;2022-11-20T05:26:17;6.50;99.90
18733;DHT22;9495;51.210;2.934;2022-11-20T05:28:46;6.60;99.90
18733;DHT22;9495;51.210;2.934;2022-11-20T05:31:17;6.70;99.90
18733;DHT22;9495;51.210;2.934;2022-11-20T05:33:53;6.60;99.90
18733;DHT22;9495;51.210;2.934;2022-11-20T05:36:21;6.90;99.90
18733;DHT22;9495;51.210;2.934;2022-11-20T05:38:50;6.90;99.90
18733;DHT22;9495;51.210;2.934;2022-11-20T05:41:28;6.70;99.90
18733;DHT22;9495;51.210;2.934;2022-11-20T05:44:00;6.70;99.90
18733;DHT22;9495;51.210;2.934;2022-11-20T05:46:28;6.90;99.90
18733;DHT22;9495;51.210;2.934;2022-11-20T05:48:57;7.30;99.90
18733;DHT22;9495;51.210;2.934;2022-11-20T05:51:25;6.90;99.90
18733;DHT22;9495;51.210;2.934;2022-11-20T05:53:56;6.90;99.90
18733;DHT22;9495;51.210;2.934;2022-11-20T05:56:24;7.30;99.90
18733;DHT22;9495;51.210;2.934;2022-11-20T05:58:54;6.90;99.90
18733;DHT22;9495;51.210;2.934;2022-11-20T06:01:24;6.90;99.90
18733;DHT22;9495;51.210;2.934;2022-11-20T06:03:53;6.90;99.90
18733;DHT22;9495;51.210;2.934;2022-11-20T06:06:22;6.80;99.90
18733;DHT22;9495;51.210;2.934;2022-11-20T06:08:52;6.80;99.90
18733;DHT22;9495;51.210;2.934;2022-11-20T06:11:21;6.80;99.90
18733;DHT22;9495;51.210;2.934;2022-11-20T06:13:49;7.00;99.90
18733;DHT22;9495;51.210;2.934;2022-11-20T06:16:20;7.00;99.90
18733;DHT22;9495;51.210;2.934;2022-11-20T06:18:48;7.00;99.90
18733;DHT22;9495;51.210;2.934;2022-11-20T06:21:18;7.00;99.90
18733;DHT22;9495;51.210;2.934;2022-11-20T06:23:47;6.90;99.90
18733;DHT22;9495;51.210;2.934;2022-11-20T06:26:18;7.10;99.90
18733;DHT22;9495;51.210;2.934;2022-11-20T06:28:46;7.10;99.90
18733;DHT22;9495;51.210;2.934;2022-11-20T06:31:16;7.10;99.90
18733;DHT22;9495;51.210;2.934;2022-11-20T06:33:46;7.20;99.90
18733;DHT22;9495;51.210;2.934;2022-11-20T06:36:16;7.20;99.90
18733;DHT22;9495;51.210;2.934;2022-11-20T06:38:45;7.10;99.90
18733;DHT22;9495;51.210;2.934;2022-11-20T06:41:14;7.10;99.90
18733;DHT22;9495;51.210;2.934;2022-11-20T06:43:42;7.10;99.90
18733;DHT22;9495;51.210;2.934;2022-11-20T06:46:11;7.00;99.90
18733;DHT22;9495;51.210;2.934;2022-11-20T06:48:40;7.00;99.90
18733;DHT22;9495;51.210;2.934;2022-11-20T06:51:10;7.00;99.90
18733;DHT22;9495;51.210;2.934;2022-11-20T06:53:38;7.10;99.90
18733;DHT22;9495;51.210;2.934;2022-11-20T06:56:07;7.10;99.90
18733;DHT22;9495;51.210;2.934;2022-11-20T06:58:36;7.10;99.90
18733;DHT22;9495;51.210;2.934;2022-11-20T07:01:07;7.10;99.90
18733;DHT22;9495;51.210;2.934;2022-11-20T07:03:36;7.20;99.90
18733;DHT22;9495;51.210;2.934;2022-11-20T07:06:05;7.20;99.90
18733;DHT22;9495;51.210;2.934;2022-11-20T07:08:35;7.10;99.90
18733;DHT22;9495;51.210;2.934;2022-11-20T07:11:05;7.10;99.90
18733;DHT22;9495;51.210;2.934;2022-11-20T07:13:33;7.10;99.90
18733;DHT22;9495;51.210;2.934;2022-11-20T07:16:03;7.10;99.90
18733;DHT22;9495;51.210;2.934;2022-11-20T07:18:32;7.20;99.90
18733;DHT22;9495;51.210;2.934;2022-11-20T07:21:00;7.20;99.90
18733;DHT22;9495;51.210;2.934;2022-11-20T07:23:29;7.20;99.90
18733;DHT22;9495;51.210;2.934;2022-11-20T07:26:02;7.20;99.90
18733;DHT22;9495;51.210;2.934;2022-11-20T07:28:31;7.20;99.90
18733;DHT22;9495;51.210;2.934;2022-11-20T07:30:59;7.30;99.90
18733;DHT22;9495;51.210;2.934;2022-11-20T07:33:28;7.30;99.90
18733;DHT22;9495;51.210;2.934;2022-11-20T07:35:58;7.20;99.90
18733;DHT22;9495;51.210;2.934;2022-11-20T07:38:27;7.20;99.90
18733;DHT22;9495;51.210;2.934;2022-11-20T07:40:55;7.20;99.90
18733;DHT22;9495;51.210;2.934;2022-11-20T07:43:26;7.30;99.90
18733;DHT22;9495;51.210;2.934;2022-11-20T07:45:55;7.40;99.90
18733;DHT22;9495;51.210;2.934;2022-11-20T07:48:23;7.40;99.90
18733;DHT22;9495;51.210;2.934;2022-11-20T07:50:53;7.40;99.90
18733;DHT22;9495;51.210;2.934;2022-11-20T07:53:22;7.40;99.90
18733;DHT22;9495;51.210;2.934;2022-11-20T07:55:50;7.50;99.90
18733;DHT22;9495;51.210;2.934;2022-11-20T07:58:19;7.50;99.90
18733;DHT22;9495;51.210;2.934;2022-11-20T08:00:49;7.50;99.90
18733;DHT22;9495;51.210;2.934;2022-11-20T08:03:18;7.50;99.90
18733;DHT22;9495;51.210;2.934;2022-11-20T08:05:51;7.50;99.90
18733;DHT22;9495;51.210;2.934;2022-11-20T08:08:19;7.50;99.90
18733;DHT22;9495;51.210;2.934;2022-11-20T08:10:48;7.50;99.90
18733;DHT22;9495;51.210;2.934;2022-11-20T08:13:16;7.50;99.90
18733;DHT22;9495;51.210;2.934;2022-11-20T08:16:04;7.50;99.90
18733;DHT22;9495;51.210;2.934;2022-11-20T08:18:32;7.60;99.90
18733;DHT22;9495;51.210;2.934;2022-11-20T08:21:02;7.80;99.90
18733;DHT22;9495;51.210;2.934;2022-11-20T08:23:31;7.70;99.90
18733;DHT22;9495;51.210;2.934;2022-11-20T08:26:00;7.70;99.90
18733;DHT22;9495;51.210;2.934;2022-11-20T08:28:28;7.70;99.90
18733;DHT22;9495;51.210;2.934;2022-11-20T08:30:58;7.70;99.90
18733;DHT22;9495;51.210;2.934;2022-11-20T08:33:29;7.80;99.90
18733;DHT22;9495;51.210;2.934;2022-11-20T08:36:00;7.80;99.90
18733;DHT22;9495;51.210;2.934;2022-11-20T08:38:29;7.80;99.90
18733;DHT22;9495;51.210;2.934;2022-11-20T08:40:58;7.80;99.90
18733;DHT22;9495;51.210;2.934;2022-11-20T08:43:40;7.90;99.90
18733;DHT22;9495;51.210;2.934;2022-11-20T08:46:08;8.00;99.90
18733;DHT22;9495;51.210;2.934;2022-11-20T08:48:38;7.90;99.90
18733;DHT22;9495;51.210;2.934;2022-11-20T08:51:06;8.00;99.90
18733;DHT22;9495;51.210;2.934;2022-11-20T08:53:35;8.10;99.90
18733;DHT22;9495;51.210;2.934;2022-11-20T08:56:03;8.10;99.90
18733;DHT22;9495;51.210;2.934;2022-11-20T08:58:32;8.10;99.90
18733;DHT22;9495;51.210;2.934;2022-11-20T09:01:21;8.30;99.90
18733;DHT22;9495;51.210;2.934;2022-11-20T09:03:51;8.20;99.90
18733;DHT22;9495;51.210;2.934;2022-11-20T09:06:20;8.20;99.90
18733;DHT22;9495;51.210;2.934;2022-11-20T09:08:52;8.20;99.90
18733;DHT22;9495;51.210;2.934;2022-11-20T09:11:20;8.20;99.90
18733;DHT22;9495;51.210;2.934;2022-11-20T09:13:49;8.40;99.90
18733;DHT22;9495;51.210;2.934;2022-11-20T09:16:17;8.60;99.90
18733;DHT22;9495;51.210;2.934;2022-11-20T09:18:46;8.80;99.90
18733;DHT22;9495;51.210;2.934;2022-11-20T09:21:34;8.80;99.90
18733;DHT22;9495;51.210;2.934;2022-11-20T09:24:04;8.70;99.90
18733;DHT22;9495;51.210;2.934;2022-11-20T09:26:32;8.80;99.90
18733;DHT22;9495;51.210;2.934;2022-11-20T09:29:01;8.80;99.90
18733;DHT22;9495;51.210;2.934;2022-11-20T09:31:29;8.80;99.90
18733;DHT22;9495;51.210;2.934;2022-11-20T09:33:57;9.20;99.90
18733;DHT22;9495;51.210;2.934;2022-11-20T09:36:26;9.50;99.90
18733;DHT22;9495;51.210;2.934;2022-11-20T09:38:55;9.10;99.90
18733;DHT22;9495;51.210;2.934;2022-11-20T09:44:35;9.00;99.90
18733;DHT22;9495;51.210;2.934;2022-11-20T09:47:08;9.00;99.90
18733;DHT22;9495;51.210;2.934;2022-11-20T09:49:54;9.50;99.90
18733;DHT22;9495;51.210;2.934;2022-11-20T09:52:36;9.30;99.90
18733;DHT22;9495;51.210;2.934;2022-11-20T09:55:10;9.30;99.90
18733;DHT22;9495;51.210;2.934;2022-11-20T09:57:42;9.30;99.90
18733;DHT22;9495;51.210;2.934;2022-11-20T10:00:13;9.30;99.90
18733;DHT22;9495;51.210;2.934;2022-11-20T10:02:44;9.90;99.90
18733;DHT22;9495;51.210;2.934;2022-11-20T10:05:18;9.80;99.90
18733;DHT22;9495;51.210;2.934;2022-11-20T10:07:53;9.80;99.90
18733;DHT22;9495;51.210;2.934;2022-11-20T10:10:31;10.50;99.90
18733;DHT22;9495;51.210;2.934;2022-11-20T10:13:20;11.40;99.90
18733;DHT22;9495;51.210;2.934;2022-11-20T10:16:00;10.80;99.90
18733;DHT22;9495;51.210;2.934;2022-11-20T10:18:41;10.20;99.90
18733;DHT22;9495;51.210;2.934;2022-11-20T10:21:19;10.20;99.90
18733;DHT22;9495;51.210;2.934;2022-11-20T10:24:05;10.30;99.90
18733;DHT22;9495;51.210;2.934;2022-11-20T10:26:43;10.80;99.90
18733;DHT22;9495;51.210;2.934;2022-11-20T10:29:15;10.70;99.90
18733;DHT22;9495;51.210;2.934;2022-11-20T10:31:45;10.70;99.90
18733;DHT22;9495;51.210;2.934;2022-11-20T10:34:20;10.40;99.90
18733;DHT22;9495;51.210;2.934;2022-11-20T10:36:54;10.90;99.90
18733;DHT22;9495;51.210;2.934;2022-11-20T10:39:31;11.10;99.90
18733;DHT22;9495;51.210;2.934;2022-11-20T10:42:08;11.50;99.90
18733;DHT22;9495;51.210;2.934;2022-11-20T10:44:39;11.20;99.90
18733;DHT22;9495;51.210;2.934;2022-11-20T10:47:33;11.20;99.90
18733;DHT22;9495;51.210;2.934;2022-11-20T10:50:05;11.50;99.90
18733;DHT22;9495;51.210;2.934;2022-11-20T10:52:41;11.10;99.90
18733;DHT22;9495;51.210;2.934;2022-11-20T10:55:24;10.80;99.90
18733;DHT22;9495;51.210;2.934;2022-11-20T10:58:01;11.00;99.90
18733;DHT22;9495;51.210;2.934;2022-11-20T11:00:34;11.00;99.90
18733;DHT22;9495;51.210;2.934;2022-11-20T11:03:07;10.50;99.90
18733;DHT22;9495;51.210;2.934;2022-11-20T11:05:42;10.30;99.90
18733;DHT22;9495;51.210;2.934;2022-11-20T11:08:15;10.70;99.90
18733;DHT22;9495;51.210;2.934;2022-11-20T11:10:49;11.10;99.90
18733;DHT22;9495;51.210;2.934;2022-11-20T11:13:21;11.10;99.90
18733;DHT22;9495;51.210;2.934;2022-11-20T11:15:50;11.00;99.90
18733;DHT22;9495;51.210;2.934;2022-11-20T11:18:27;11.10;99.90
18733;DHT22;9495;51.210;2.934;2022-11-20T11:20:56;11.00;99.90
18733;DHT22;9495;51.210;2.934;2022-11-20T11:23:32;10.50;99.90
18733;DHT22;9495;51.210;2.934;2022-11-20T11:26:02;10.30;99.90
18733;DHT22;9495;51.210;2.934;2022-11-20T11:28:32;10.80;99.90
18733;DHT22;9495;51.210;2.934;2022-11-20T11:31:01;10.80;99.90
18733;DHT22;9495;51.210;2.934;2022-11-20T11:33:31;11.60;99.90
18733;DHT22;9495;51.210;2.934;2022-11-20T11:36:03;11.20;99.90
18733;DHT22;9495;51.210;2.934;2022-11-20T11:38:35;11.40;99.90
18733;DHT22;9495;51.210;2.934;2022-11-20T11:41:05;11.70;99.90
18733;DHT22;9495;51.210;2.934;2022-11-20T11:43:37;10.20;99.90
18733;DHT22;9495;51.210;2.934;2022-11-20T11:46:27;9.70;99.90
18733;DHT22;9495;51.210;2.934;2022-11-20T11:48:58;9.30;99.90
18733;DHT22;9495;51.210;2.934;2022-11-20T11:51:32;9.40;99.90
18733;DHT22;9495;51.210;2.934;2022-11-20T11:54:10;9.30;99.90
18733;DHT22;9495;51.210;2.934;2022-11-20T11:56:42;9.20;99.90
18733;DHT22;9495;51.210;2.934;2022-11-20T11:59:16;9.10;99.90
18733;DHT22;9495;51.210;2.934;2022-11-20T12:01:53;9.00;99.90
18733;DHT22;9495;51.210;2.934;2022-11-20T12:04:35;9.00;99.90
18733;DHT22;9495;51.210;2.934;2022-11-20T12:07:11;9.00;99.90
18733;DHT22;9495;51.210;2.934;2022-11-20T12:10:02;9.00;99.90
18733;DHT22;9495;51.210;2.934;2022-11-20T12:12:36;9.30;99.90
18733;DHT22;9495;51.210;2.934;2022-11-20T12:15:11;10.60;99.90
18733;DHT22;9495;51.210;2.934;2022-11-20T12:17:41;10.40;99.90
18733;DHT22;9495;51.210;2.934;2022-11-20T12:20:13;10.50;99.90
18733;DHT22;9495;51.210;2.934;2022-11-20T12:22:48;11.10;99.90
18733;DHT22;9495;51.210;2.934;2022-11-20T12:25:22;10.90;99.90
18733;DHT22;9495;51.210;2.934;2022-11-20T12:28:16;11.90;99.90
18733;DHT22;9495;51.210;2.934;2022-11-20T12:30:56;11.60;99.90
18733;DHT22;9495;51.210;2.934;2022-11-20T12:33:42;12.50;99.90
18733;DHT22;9495;51.210;2.934;2022-11-20T12:36:21;12.80;99.90
18733;DHT22;9495;51.210;2.934;2022-11-20T12:45:22;12.10;99.90
18733;DHT22;9495;51.210;2.934;2022-11-20T12:48:09;11.80;99.90
18733;DHT22;9495;51.210;2.934;2022-11-20T12:50:47;11.90;99.90
18733;DHT22;9495;51.210;2.934;2022-11-20T12:53:44;12.20;99.90
18733;DHT22;9495;51.210;2.934;2022-11-20T12:56:22;12.30;99.90
18733;DHT22;9495;51.210;2.934;2022-11-20T12:59:10;12.20;99.90
18733;DHT22;9495;51.210;2.934;2022-11-20T13:01:46;12.80;99.90
18733;DHT22;9495;51.210;2.934;2022-11-20T13:04:39;12.70;99.90
18733;DHT22;9495;51.210;2.934;2022-11-20T13:07:14;12.70;99.90
18733;DHT22;9495;51.210;2.934;2022-11-20T13:09:49;12.60;99.90
18733;DHT22;9495;51.210;2.934;2022-11-20T13:12:23;12.70;99.90
18733;DHT22;9495;51.210;2.934;2022-11-20T13:14:57;12.20;99.90
18733;DHT22;9495;51.210;2.934;2022-11-20T13:17:33;12.70;99.90
18733;DHT22;9495;51.210;2.934;2022-11-20T13:20:12;12.70;99.90
18733;DHT22;9495;51.210;2.934;2022-11-20T13:22:45;12.70;99.90
18733;DHT22;9495;51.210;2.934;2022-11-20T13:25:23;13.40;99.90
18733;DHT22;9495;51.210;2.934;2022-11-20T13:27:52;12.60;99.90
18733;DHT22;9495;51.210;2.934;2022-11-20T13:30:22;11.90;99.90
18733;DHT22;9495;51.210;2.934;2022-11-20T13:32:52;12.30;99.90
18733;DHT22;9495;51.210;2.934;2022-11-20T13:35:31;12.40;99.90
18733;DHT22;9495;51.210;2.934;2022-11-20T13:38:02;11.80;99.90
18733;DHT22;9495;51.210;2.934;2022-11-20T13:40:30;11.40;99.90
18733;DHT22;9495;51.210;2.934;2022-11-20T13:43:07;12.10;99.90
18733;DHT22;9495;51.210;2.934;2022-11-20T13:45:36;11.70;99.90
18733;DHT22;9495;51.210;2.934;2022-11-20T13:48:19;11.20;99.90
18733;DHT22;9495;51.210;2.934;2022-11-20T13:51:06;11.20;99.90
18733;DHT22;9495;51.210;2.934;2022-11-20T13:54:01;11.20;99.90
18733;DHT22;9495;51.210;2.934;2022-11-20T13:56:40;11.00;99.90
18733;DHT22;9495;51.210;2.934;2022-11-20T13:59:21;11.00;99.90
18733;DHT22;9495;51.210;2.934;2022-11-20T14:01:53;11.10;99.90
18733;DHT22;9495;51.210;2.934;2022-11-20T14:04:26;11.10;99.90
18733;DHT22;9495;51.210;2.934;2022-11-20T14:06:56;11.20;99.90
18733;DHT22;9495;51.210;2.934;2022-11-20T14:09:28;11.10;99.90
18733;DHT22;9495;51.210;2.934;2022-11-20T14:11:56;11.10;99.90
18733;DHT22;9495;51.210;2.934;2022-11-20T14:14:26;11.20;99.90
18733;DHT22;9495;51.210;2.934;2022-11-20T14:17:05;11.00;99.90
18733;DHT22;9495;51.210;2.934;2022-11-20T14:19:34;11.10;99.90
18733;DHT22;9495;51.210;2.934;2022-11-20T14:22:14;11.10;99.90
18733;DHT22;9495;51.210;2.934;2022-11-20T14:24:44;11.20;99.90
18733;DHT22;9495;51.210;2.934;2022-11-20T14:27:14;11.30;99.90
18733;DHT22;9495;51.210;2.934;2022-11-20T14:29:44;11.10;99.90
18733;DHT22;9495;51.210;2.934;2022-11-20T14:32:15;11.10;99.90
18733;DHT22;9495;51.210;2.934;2022-11-20T14:34:47;11.20;99.90
18733;DHT22;9495;51.210;2.934;2022-11-20T14:37:21;11.20;99.90
18733;DHT22;9495;51.210;2.934;2022-11-20T14:39:52;11.20;99.90
18733;DHT22;9495;51.210;2.934;2022-11-20T14:42:23;11.20;99.90
18733;DHT22;9495;51.210;2.934;2022-11-20T14:44:55;11.30;99.90
18733;DHT22;9495;51.210;2.934;2022-11-20T14:47:25;11.30;99.90
18733;DHT22;9495;51.210;2.934;2022-11-20T14:49:54;11.40;99.90
18733;DHT22;9495;51.210;2.934;2022-11-20T14:52:26;11.30;99.90
18733;DHT22;9495;51.210;2.934;2022-11-20T14:54:56;11.30;99.90
18733;DHT22;9495;51.210;2.934;2022-11-20T14:57:27;11.20;99.90
18733;DHT22;9495;51.210;2.934;2022-11-20T15:00:07;11.40;99.90
18733;DHT22;9495;51.210;2.934;2022-11-20T15:02:39;11.30;99.90
18733;DHT22;9495;51.210;2.934;2022-11-20T15:05:09;11.40;99.90
18733;DHT22;9495;51.210;2.934;2022-11-20T15:07:40;11.30;99.90
18733;DHT22;9495;51.210;2.934;2022-11-20T15:10:19;11.40;99.90
18733;DHT22;9495;51.210;2.934;2022-11-20T15:12:49;11.30;99.90
18733;DHT22;9495;51.210;2.934;2022-11-20T15:15:21;11.30;99.90
18733;DHT22;9495;51.210;2.934;2022-11-20T15:17:51;11.40;99.90
18733;DHT22;9495;51.210;2.934;2022-11-20T15:20:22;11.20;99.90
18733;DHT22;9495;51.210;2.934;2022-11-20T15:22:53;11.20;99.90
18733;DHT22;9495;51.210;2.934;2022-11-20T15:25:21;11.30;99.90
18733;DHT22;9495;51.210;2.934;2022-11-20T15:27:54;11.30;99.90
18733;DHT22;9495;51.210;2.934;2022-11-20T15:30:23;11.40;99.90
18733;DHT22;9495;51.210;2.934;2022-11-20T15:32:52;11.40;99.90
18733;DHT22;9495;51.210;2.934;2022-11-20T15:35:21;11.30;99.90
18733;DHT22;9495;51.210;2.934;2022-11-20T15:37:49;11.30;99.90
18733;DHT22;9495;51.210;2.934;2022-11-20T15:40:19;11.40;99.90
18733;DHT22;9495;51.210;2.934;2022-11-20T15:42:48;11.30;99.90
18733;DHT22;9495;51.210;2.934;2022-11-20T15:45:40;11.30;99.90
18733;DHT22;9495;51.210;2.934;2022-11-20T15:48:12;11.30;99.90
18733;DHT22;9495;51.210;2.934;2022-11-20T15:50:50;11.40;99.90
18733;DHT22;9495;51.210;2.934;2022-11-20T15:53:19;11.30;99.90
18733;DHT22;9495;51.210;2.934;2022-11-20T15:55:49;11.40;99.90
18733;DHT22;9495;51.210;2.934;2022-11-20T15:58:17;11.30;99.90
18733;DHT22;9495;51.210;2.934;2022-11-20T16:00:46;11.30;99.90
18733;DHT22;9495;51.210;2.934;2022-11-20T16:03:15;11.50;99.90
18733;DHT22;9495;51.210;2.934;2022-11-20T16:05:44;11.40;99.90
18733;DHT22;9495;51.210;2.934;2022-11-20T16:08:12;11.40;99.90
18733;DHT22;9495;51.210;2.934;2022-11-20T16:10:41;11.40;99.90
18733;DHT22;9495;51.210;2.934;2022-11-20T16:13:13;11.50;99.90
18733;DHT22;9495;51.210;2.934;2022-11-20T16:16:02;11.50;99.90
18733;DHT22;9495;51.210;2.934;2022-11-20T16:18:33;11.70;99.90
18733;DHT22;9495;51.210;2.934;2022-11-20T16:21:03;11.50;99.90
18733;DHT22;9495;51.210;2.934;2022-11-20T16:23:32;11.50;99.90
18733;DHT22;9495;51.210;2.934;2022-11-20T16:26:09;11.30;99.90
18733;DHT22;9495;51.210;2.934;2022-11-20T16:28:39;11.50;99.90
18733;DHT22;9495;51.210;2.934;2022-11-20T16:31:09;11.50;99.90
18733;DHT22;9495;51.210;2.934;2022-11-20T16:33:38;11.50;99.90
18733;DHT22;9495;51.210;2.934;2022-11-20T16:36:07;11.40;99.90